Time;durP1;ratioP1;P1;durP2;ratioP2;P2;SDS_P1;SDS_P2;PMS_P1;PMS_P2;Temp;Humidity;BMP_temperature;BMP_pressure;BME280_temperature;BME280_humidity;BME280_pressure;Samples;Min_cycle;Max_cycle;Signal;HPM_P1;HPM_P2
2021/10/30 00:00:21;;;;;;;3.60;1.00;;;;;;;22.12;39.41;98634.75;5033074;28;20440;-76
2021/10/30 00:02:47;;;;;;;2.13;1.00;;;;;;;22.18;39.12;98638.56;5032847;28;20041;-76
2021/10/30 00:05:13;;;;;;;1.92;0.90;;;;;;;22.10;39.34;98637.19;5032995;28;20028;-76
2021/10/30 00:07:40;;;;;;;1.02;0.70;;;;;;;22.14;39.25;98641.44;5032932;28;20057;-76
2021/10/30 00:10:07;;;;;;;2.17;0.77;;;;;;;22.14;39.28;98647.00;5032911;28;20064;-76
2021/10/30 00:12:34;;;;;;;1.98;0.77;;;;;;;22.15;39.38;98645.78;5015081;28;20435;-77
2021/10/30 00:14:59;;;;;;;2.90;0.90;;;;;;;22.16;39.11;98643.78;5032890;28;20026;-76
2021/10/30 00:17:25;;;;;;;1.70;0.73;;;;;;;22.15;39.32;98642.22;5032682;28;20423;-77
2021/10/30 00:19:51;;;;;;;2.97;0.82;;;;;;;22.12;39.02;98635.53;5032714;28;20021;-76
2021/10/30 00:22:17;;;;;;;2.25;1.08;;;;;;;22.09;39.12;98628.09;5032793;28;20491;-77
2021/10/30 00:24:43;;;;;;;1.70;0.70;;;;;;;21.90;39.51;98629.00;5032646;28;20049;-76
2021/10/30 00:27:10;;;;;;;1.90;0.70;;;;;;;21.96;39.16;98632.03;5032582;28;20464;-77
2021/10/30 00:29:37;;;;;;;3.00;0.98;;;;;;;21.93;39.14;98630.13;5032147;28;20384;-76
2021/10/30 00:32:04;;;;;;;2.45;0.80;;;;;;;21.92;39.33;98637.69;5032614;28;20025;-76
2021/10/30 00:34:30;;;;;;;2.80;0.90;;;;;;;21.92;39.25;98639.69;5032495;28;20053;-76
2021/10/30 00:36:55;;;;;;;3.90;1.13;;;;;;;21.81;39.42;98639.97;5032400;28;20068;-76
2021/10/30 00:39:21;;;;;;;3.00;1.38;;;;;;;21.79;39.35;98645.19;5032546;28;20034;-77
2021/10/30 00:41:52;;;;;;;3.72;1.00;;;;;;;21.80;39.20;98641.19;5032512;28;20060;-76
2021/10/30 00:44:19;;;;;;;1.02;0.88;;;;;;;21.79;39.08;98639.66;5032432;28;20043;-76
2021/10/30 00:46:48;;;;;;;2.35;1.00;;;;;;;21.84;39.07;98636.34;5032469;28;20460;-76
2021/10/30 00:49:16;;;;;;;4.30;1.25;;;;;;;21.82;38.92;98636.75;5032386;28;20029;-76
2021/10/30 00:51:43;;;;;;;3.78;1.50;;;;;;;21.77;38.97;98634.53;5032400;28;20021;-76
2021/10/30 00:54:10;;;;;;;3.53;1.00;;;;;;;21.64;39.31;98628.13;5032327;28;20026;-77
2021/10/30 00:56:37;;;;;;;2.08;1.10;;;;;;;21.59;39.06;98632.22;5032258;28;20026;-76
2021/10/30 00:59:11;;;;;;;3.25;1.48;;;;;;;21.65;38.97;98626.91;5032304;28;20025;-77
2021/10/30 01:01:38;;;;;;;4.53;1.20;;;;;;;21.59;38.89;98634.22;5032073;28;20049;-77
2021/10/30 01:04:04;;;;;;;7.35;1.60;;;;;;;21.49;39.18;98630.53;5033796;28;20479;-76
2021/10/30 01:06:32;;;;;;;2.05;1.55;;;;;;;21.47;39.04;98630.19;5052222;28;20024;-76
2021/10/30 01:08:57;;;;;;;3.78;1.42;;;;;;;21.47;39.12;98624.63;5052105;28;20033;-76
2021/10/30 01:11:23;;;;;;;4.05;1.38;;;;;;;21.38;39.08;98623.66;5052055;28;20033;-77
2021/10/30 01:13:51;;;;;;;4.22;1.35;;;;;;;21.32;39.08;98610.31;5052089;28;20021;-77
2021/10/30 01:16:18;;;;;;;7.03;2.10;;;;;;;21.17;39.44;98602.78;5051939;28;20103;-77
2021/10/30 01:18:44;;;;;;;2.00;1.17;;;;;;;21.19;39.21;98605.88;5034129;28;20032;-77
2021/10/30 01:21:10;;;;;;;3.08;1.20;;;;;;;21.21;39.29;98603.44;5052011;28;20021;-76
2021/10/30 01:23:36;;;;;;;3.22;1.00;;;;;;;21.09;39.35;98612.50;5052111;28;20111;-76
2021/10/30 01:26:02;;;;;;;6.15;1.30;;;;;;;20.99;39.49;98614.31;5051915;28;20365;-76
2021/10/30 01:28:30;;;;;;;7.07;1.30;;;;;;;20.97;39.70;98623.06;5051901;28;20061;-76
2021/10/30 01:30:57;;;;;;;3.17;1.20;;;;;;;20.85;39.81;98632.09;5051829;28;20021;-77
2021/10/30 01:33:24;;;;;;;2.30;1.60;;;;;;;20.88;39.86;98633.25;5051855;28;20029;-77
2021/10/30 01:35:50;;;;;;;2.88;1.70;;;;;;;20.90;39.45;98631.59;5051730;28;20035;-77
2021/10/30 01:38:16;;;;;;;6.13;1.67;;;;;;;20.89;39.52;98632.03;5051809;28;20417;-77
2021/10/30 01:40:49;;;;;;;2.47;1.40;;;;;;;20.85;39.44;98642.41;5052150;28;20109;-76
2021/10/30 01:43:15;;;;;;;3.10;1.27;;;;;;;20.84;39.22;98647.19;5055796;28;20021;-76
2021/10/30 01:45:43;;;;;;;6.07;1.95;;;;;;;20.79;39.45;98642.16;5055456;28;20070;-76
2021/10/30 01:48:10;;;;;;;4.03;1.70;;;;;;;20.70;39.62;98637.19;5037317;28;20112;-76
2021/10/30 01:50:37;;;;;;;1.67;1.27;;;;;;;20.63;39.62;98631.03;5037467;28;20111;-76
2021/10/30 01:53:03;;;;;;;4.57;1.75;;;;;;;20.59;39.45;98624.78;5055204;28;20036;-77
2021/10/30 01:55:35;;;;;;;4.15;1.90;;;;;;;20.33;39.94;98613.47;5037653;28;20025;-76
2021/10/30 01:58:01;;;;;;;2.85;2.03;;;;;;;20.46;39.47;98617.13;5055321;28;20032;-76
2021/10/30 02:00:27;;;;;;;2.72;1.90;;;;;;;20.31;39.71;98629.72;5055340;28;20107;-76
2021/10/30 02:02:53;;;;;;;3.80;1.88;;;;;;;20.30;39.71;98630.16;5055002;28;20091;-76
2021/10/30 02:05:19;;;;;;;3.05;2.08;;;;;;;19.89;40.41;98623.88;5054765;28;20488;-76
2021/10/30 02:07:46;;;;;;;3.75;2.03;;;;;;;19.75;40.77;98615.84;5054980;28;20479;-76
2021/10/30 02:10:13;;;;;;;4.03;2.45;;;;;;;19.84;40.31;98610.53;5055019;28;20387;-77
2021/10/30 02:12:39;;;;;;;4.15;2.10;;;;;;;19.89;40.13;98610.03;5054964;28;20027;-76
2021/10/30 02:15:06;;;;;;;2.45;1.90;;;;;;;19.93;40.04;98619.03;5054951;28;20033;-76
2021/10/30 02:17:32;;;;;;;5.45;2.40;;;;;;;19.90;40.03;98619.91;5054812;28;20467;-76
2021/10/30 02:19:58;;;;;;;3.40;2.30;;;;;;;19.84;40.31;98624.38;5054898;28;20095;-76
2021/10/30 02:22:24;;;;;;;4.38;2.60;;;;;;;19.87;40.06;98636.59;5054765;28;20025;-76
2021/10/30 02:24:50;;;;;;;4.78;2.45;;;;;;;19.93;39.86;98643.97;5054694;28;20037;-76
2021/10/30 02:27:16;;;;;;;5.32;2.53;;;;;;;19.94;39.82;98648.31;5053866;28;20067;-76
2021/10/30 02:29:42;;;;;;;4.38;2.03;;;;;;;19.99;39.68;98660.13;5054167;28;20044;-76
2021/10/30 02:32:08;;;;;;;2.75;1.95;;;;;;;20.01;39.72;98657.69;5054552;28;20473;-76
2021/10/30 02:34:33;;;;;;;7.28;2.40;;;;;;;19.99;39.90;98665.66;5036653;28;20542;-77
2021/10/30 02:36:59;;;;;;;3.92;1.90;;;;;;;20.00;39.70;98656.91;5054226;28;20131;-77
2021/10/30 02:39:25;;;;;;;5.95;3.28;;;;;;;20.04;39.41;98657.63;5054646;28;20036;-76
2021/10/30 02:41:50;;;;;;;4.13;2.05;;;;;;;20.05;39.61;98659.19;5054517;28;20028;-76
2021/10/30 02:44:16;;;;;;;4.13;2.30;;;;;;;20.03;39.51;98660.84;5054295;28;20025;-76
2021/10/30 02:46:42;;;;;;;4.45;2.58;;;;;;;19.93;39.58;98657.84;5054428;28;20050;-76
2021/10/30 02:49:07;;;;;;;3.70;1.95;;;;;;;19.97;39.38;98654.22;5054286;28;20035;-78
2021/10/30 02:51:33;;;;;;;3.88;1.67;;;;;;;19.94;39.37;98653.84;5053851;28;20036;-76
2021/10/30 02:53:59;;;;;;;7.90;2.28;;;;;;;19.87;39.53;98642.13;5054206;28;20079;-77
2021/10/30 02:56:24;;;;;;;4.35;1.73;;;;;;;19.89;39.41;98639.72;5054019;28;20029;-76
2021/10/30 02:58:50;;;;;;;3.40;1.83;;;;;;;19.87;39.30;98634.59;5054052;28;20032;-76
2021/10/30 03:01:15;;;;;;;6.22;2.15;;;;;;;19.83;39.40;98631.13;5053934;28;20064;-76
2021/10/30 03:03:41;;;;;;;3.83;2.25;;;;;;;19.77;39.50;98635.59;5054064;28;20032;-76
2021/10/30 03:06:08;;;;;;;3.22;1.77;;;;;;;19.54;39.67;98630.06;5053943;28;20033;-76
2021/10/30 03:08:33;;;;;;;4.35;2.30;;;;;;;19.60;39.49;98623.66;5053912;28;20059;-76
2021/10/30 03:10:59;;;;;;;4.82;2.60;;;;;;;19.46;39.92;98621.13;5053871;28;20017;-76
2021/10/30 03:13:25;;;;;;;5.05;1.92;;;;;;;19.46;39.66;98628.66;5053820;28;20029;-76
2021/10/30 03:15:51;;;;;;;4.13;2.55;;;;;;;19.47;39.61;98633.75;5053724;28;20036;-77
2021/10/30 03:18:17;;;;;;;3.70;2.17;;;;;;;19.30;39.93;98643.97;5053757;28;20025;-76
2021/10/30 03:20:42;;;;;;;5.32;1.70;;;;;;;19.36;39.67;98652.56;5053652;28;20021;-76
2021/10/30 03:23:08;;;;;;;5.25;2.20;;;;;;;19.36;39.64;98652.56;5053722;28;20024;-76
2021/10/30 03:25:34;;;;;;;3.35;1.55;;;;;;;19.38;39.62;98648.16;5053560;28;20029;-76
2021/10/30 03:28:01;;;;;;;2.53;1.60;;;;;;;19.39;39.65;98651.72;5053514;28;20025;-77
2021/10/30 03:30:27;;;;;;;3.10;1.90;;;;;;;19.34;39.47;98649.41;5053532;28;20048;-76
2021/10/30 03:32:52;;;;;;;4.13;2.03;;;;;;;19.26;39.58;98653.50;5053443;28;20071;-76
2021/10/30 03:35:18;;;;;;;6.00;1.90;;;;;;;19.23;39.59;98646.06;5053449;28;20032;-76
2021/10/30 03:37:44;;;;;;;4.07;2.05;;;;;;;19.25;39.56;98652.72;5053287;28;20064;-76
2021/10/30 03:40:11;;;;;;;3.30;1.80;;;;;;;19.25;39.46;98649.19;5053439;28;20060;-77
2021/10/30 03:42:37;;;;;;;4.47;1.83;;;;;;;19.26;39.70;98645.22;5053274;28;20029;-76
2021/10/30 03:45:05;;;;;;;3.55;1.70;;;;;;;19.23;39.60;98644.06;5053153;28;20545;-76
2021/10/30 03:47:33;;;;;;;3.15;2.17;;;;;;;19.18;39.67;98649.31;5053256;28;20033;-76
2021/10/30 03:49:59;;;;;;;5.38;2.15;;;;;;;19.12;39.71;98644.28;5052793;28;20021;-76
2021/10/30 03:52:25;;;;;;;4.53;2.15;;;;;;;19.18;39.42;98647.31;5053164;28;20025;-76
2021/10/30 03:54:52;;;;;;;3.90;2.13;;;;;;;19.17;39.45;98656.84;5053042;28;20025;-76
2021/10/30 03:57:17;;;;;;;4.03;2.17;;;;;;;19.17;39.45;98661.59;5034976;28;20488;-77
2021/10/30 03:59:43;;;;;;;5.50;2.40;;;;;;;19.16;39.50;98671.88;5052989;28;20035;-76
2021/10/30 04:02:09;;;;;;;9.52;2.83;;;;;;;19.12;39.45;98685.78;5052814;28;20041;-76
2021/10/30 04:04:34;;;;;;;6.63;2.83;;;;;;;19.13;39.23;98673.50;5034233;28;20052;-76
2021/10/30 04:07:00;;;;;;;5.68;2.05;;;;;;;19.09;39.47;98691.38;5034921;28;20028;-76
2021/10/30 04:09:27;;;;;;;6.03;2.03;;;;;;;19.05;39.39;98683.13;5034710;28;20507;-77
2021/10/30 04:11:54;;;;;;;3.67;1.80;;;;;;;19.06;39.37;98684.69;5052759;28;20021;-76
2021/10/30 04:14:20;;;;;;;3.92;2.00;;;;;;;18.99;39.43;98672.97;5052667;28;20032;-76
2021/10/30 04:16:46;;;;;;;2.45;1.70;;;;;;;18.97;39.28;98661.53;5052600;28;20037;-76
2021/10/30 04:19:13;;;;;;;3.88;2.08;;;;;;;18.92;39.38;98660.00;5052734;28;20029;-76
2021/10/30 04:21:40;;;;;;;6.50;2.65;;;;;;;18.91;39.40;98649.38;5052683;28;20592;-76
2021/10/30 04:24:05;;;;;;;5.88;2.10;;;;;;;18.91;39.22;98658.44;5052627;28;20021;-76
2021/10/30 04:26:32;;;;;;;4.05;1.90;;;;;;;18.97;39.24;98651.25;5052628;28;20056;-76
2021/10/30 04:28:58;;;;;;;8.90;2.40;;;;;;;18.85;39.37;98658.13;5052655;28;20108;-76
2021/10/30 04:31:26;;;;;;;5.07;2.33;;;;;;;18.80;39.45;98655.81;5034651;28;20032;-76
2021/10/30 04:33:54;;;;;;;3.28;2.25;;;;;;;18.80;39.45;98657.81;5034572;28;20032;-77
2021/10/30 04:36:25;;;;;;;6.10;2.15;;;;;;;18.73;39.33;98660.69;5052316;28;20463;-76
2021/10/30 04:38:51;;;;;;;6.43;2.42;;;;;;;18.68;39.30;98664.72;5052274;28;20032;-79
2021/10/30 04:41:18;;;;;;;10.07;2.70;;;;;;;18.67;39.00;98670.69;5051015;28;20112;-78
2021/10/30 04:43:46;;;;;;;3.38;2.47;;;;;;;18.65;39.27;98673.81;5052350;28;20539;-78
2021/10/30 04:46:14;;;;;;;4.82;2.55;;;;;;;18.60;39.24;98677.06;5052405;28;20418;-78
2021/10/30 04:48:39;;;;;;;6.70;2.10;;;;;;;18.57;39.09;98683.41;5052338;28;20075;-78
2021/10/30 04:51:06;;;;;;;4.43;2.17;;;;;;;18.54;39.20;98692.53;5052217;28;20028;-78
2021/10/30 04:53:34;;;;;;;4.28;2.35;;;;;;;18.52;39.05;98690.22;5052330;28;20029;-78
2021/10/30 04:56:01;;;;;;;3.80;2.22;;;;;;;18.52;39.05;98689.41;5052078;28;20032;-78
2021/10/30 04:58:27;;;;;;;4.20;2.17;;;;;;;18.51;39.06;98694.16;5052109;28;20040;-78
2021/10/30 05:00:53;;;;;;;3.85;2.33;;;;;;;18.48;39.13;98691.44;5051975;28;20025;-79
2021/10/30 05:03:18;;;;;;;5.93;2.13;;;;;;;18.48;38.87;98695.00;5052256;28;20040;-77
2021/10/30 05:05:44;;;;;;;2.22;1.80;;;;;;;18.50;39.23;98689.81;5052183;28;20037;-78
2021/10/30 05:08:09;;;;;;;3.35;1.88;;;;;;;18.52;38.91;98690.22;5052073;28;20036;-77
2021/10/30 05:10:35;;;;;;;2.92;1.83;;;;;;;18.52;39.06;98692.19;5052105;28;20422;-78
2021/10/30 05:13:01;;;;;;;4.13;2.00;;;;;;;18.45;39.25;98697.81;5052085;28;20036;-78
2021/10/30 05:15:27;;;;;;;5.32;2.28;;;;;;;18.41;39.03;98706.13;5053805;28;20379;-78
2021/10/30 05:17:52;;;;;;;14.35;7.40;;;;;;;18.32;39.34;98702.31;5055931;28;20039;-78
2021/10/30 05:20:18;;;;;;;5.82;3.80;;;;;;;18.37;39.26;98702.66;5056040;28;20096;-78
2021/10/30 05:22:44;;;;;;;5.45;2.50;;;;;;;18.35;39.28;98702.25;5055972;28;20025;-78
2021/10/30 05:25:10;;;;;;;5.65;2.95;;;;;;;18.37;39.16;98710.94;5055770;28;20044;-79
2021/10/30 05:27:35;;;;;;;3.58;2.03;;;;;;;18.29;39.19;98710.25;5055813;28;20029;-78
2021/10/30 05:30:01;;;;;;;2.72;2.03;;;;;;;18.35;39.17;98709.78;5055746;28;20025;-78
2021/10/30 05:32:26;;;;;;;4.47;1.85;;;;;;;18.28;39.31;98710.63;5055740;28;20464;-78
2021/10/30 05:34:52;;;;;;;2.95;1.92;;;;;;;18.29;39.19;98715.00;5055707;28;20021;-78
2021/10/30 05:37:18;;;;;;;4.70;2.13;;;;;;;18.26;39.20;98716.59;5055634;28;20036;-79
2021/10/30 05:39:43;;;;;;;5.78;2.25;;;;;;;18.23;38.93;98714.66;5055698;28;20036;-78
2021/10/30 05:42:10;;;;;;;3.15;2.05;;;;;;;18.20;39.02;98726.53;5055554;28;20025;-77
2021/10/30 05:44:38;;;;;;;2.15;1.73;;;;;;;18.16;38.93;98723.03;5055338;28;20160;-78
2021/10/30 05:47:07;;;;;;;3.53;2.03;;;;;;;18.10;38.99;98730.22;5037414;28;20048;-78
2021/10/30 05:49:36;;;;;;;6.68;2.13;;;;;;;18.07;39.17;98730.25;5055449;28;20502;-78
2021/10/30 05:52:02;;;;;;;3.22;1.90;;;;;;;18.00;39.05;98740.19;5055262;28;20033;-78
2021/10/30 05:54:27;;;;;;;5.47;2.00;;;;;;;17.96;39.05;98735.88;5055412;28;20364;-79
2021/10/30 05:56:53;;;;;;;6.78;2.40;;;;;;;17.92;38.89;98737.91;5055231;28;20041;-78
2021/10/30 05:59:19;;;;;;;3.88;2.13;;;;;;;17.75;39.18;98745.16;5055342;28;20025;-77
2021/10/30 06:01:44;;;;;;;3.35;1.48;;;;;;;17.78;38.74;98738.06;5055039;28;20077;-78
2021/10/30 06:04:10;;;;;;;2.95;1.77;;;;;;;17.72;38.95;98743.25;5055190;28;20029;-78
2021/10/30 06:06:35;;;;;;;3.30;2.20;;;;;;;17.61;38.82;98739.78;5055073;28;20037;-79
2021/10/30 06:09:01;;;;;;;4.50;2.17;;;;;;;17.53;38.86;98744.53;5055134;28;20033;-78
2021/10/30 06:11:26;;;;;;;3.75;2.10;;;;;;;17.56;38.82;98752.03;5055098;28;20433;-78
2021/10/30 06:13:52;;;;;;;4.72;2.70;;;;;;;17.56;38.96;98751.25;5055058;28;20048;-78
2021/10/30 06:16:18;;;;;;;3.95;2.40;;;;;;;17.53;38.95;98747.31;5054916;28;20037;-79
2021/10/30 06:18:43;;;;;;;4.55;2.25;;;;;;;17.64;38.79;98747.22;5037043;28;20043;-78
2021/10/30 06:21:09;;;;;;;4.97;2.13;;;;;;;17.55;38.88;98753.22;5054817;28;20028;-77
2021/10/30 06:23:36;;;;;;;5.53;2.22;;;;;;;17.52;38.82;98756.00;5036965;28;20052;-78
2021/10/30 06:26:04;;;;;;;3.97;2.30;;;;;;;17.53;38.71;98746.53;5054530;28;20025;-78
2021/10/30 06:28:29;;;;;;;5.40;2.10;;;;;;;17.50;38.87;98745.38;5054170;28;20032;-78
2021/10/30 06:30:55;;;;;;;7.57;2.45;;;;;;;17.50;38.75;98752.88;5054622;28;20025;-78
2021/10/30 06:33:21;;;;;;;3.20;2.30;;;;;;;17.43;39.00;98754.50;5054677;28;20163;-80
2021/10/30 06:35:46;;;;;;;4.40;2.55;;;;;;;17.44;39.06;98761.59;5054515;28;20028;-78
2021/10/30 06:38:12;;;;;;;5.78;2.53;;;;;;;17.42;39.10;98763.19;5054541;28;20086;-78
2021/10/30 06:40:39;;;;;;;4.40;2.65;;;;;;;17.53;39.14;98761.13;5054504;28;20025;-78
2021/10/30 06:43:05;;;;;;;3.45;2.50;;;;;;;17.53;39.03;98763.88;5054436;28;20029;-78
2021/10/30 06:45:31;;;;;;;4.97;2.00;;;;;;;17.46;39.07;98769.47;5054328;28;20029;-79
2021/10/30 06:47:56;;;;;;;3.47;2.03;;;;;;;17.43;39.13;98762.00;5054352;28;20032;-77
2021/10/30 06:50:22;;;;;;;5.25;2.25;;;;;;;17.44;39.10;98760.81;5054322;28;20039;-77
2021/10/30 06:52:53;;;;;;;3.60;2.20;;;;;;;17.30;39.46;98771.94;5054279;28;20025;-78
2021/10/30 06:55:20;;;;;;;5.05;2.10;;;;;;;17.39;39.21;98770.31;5054303;28;20052;-77
2021/10/30 06:57:47;;;;;;;3.75;2.45;;;;;;;17.43;39.12;98764.75;5054156;28;20029;-79
2021/10/30 07:00:13;;;;;;;4.13;2.17;;;;;;;17.36;39.25;98773.88;5054090;28;20083;-79
2021/10/30 07:02:40;;;;;;;4.93;2.60;;;;;;;17.33;39.34;98766.41;5053946;28;20064;-79
2021/10/30 07:05:07;;;;;;;6.90;2.60;;;;;;;17.26;39.22;98771.19;5054108;28;20021;-78
2021/10/30 07:07:32;;;;;;;3.97;2.55;;;;;;;17.26;39.19;98771.19;5053975;28;20036;-78
2021/10/30 07:09:59;;;;;;;4.60;2.33;;;;;;;17.26;39.28;98780.25;5053975;28;20438;-77
2021/10/30 07:12:30;;;;;;;6.43;2.25;;;;;;;17.31;39.22;98787.34;5053922;28;20052;-78
2021/10/30 07:14:56;;;;;;;8.55;3.00;;;;;;;17.23;39.36;98780.28;5053938;28;20075;-78
2021/10/30 07:17:22;;;;;;;9.27;3.70;;;;;;;17.17;39.46;98788.22;5053806;28;20075;-79
2021/10/30 07:19:48;;;;;;;7.90;3.10;;;;;;;17.23;39.13;98794.88;5053784;28;20029;-79
2021/10/30 07:22:15;;;;;;;5.82;2.38;;;;;;;17.19;39.42;98799.63;5053707;28;20021;-78
2021/10/30 07:24:41;;;;;;;5.80;2.20;;;;;;;17.23;39.46;98805.13;5041522;28;20476;-77
2021/10/30 07:27:07;;;;;;;4.97;2.45;;;;;;;17.17;39.32;98804.78;5031917;28;20029;-78
2021/10/30 07:29:32;;;;;;;4.70;2.45;;;;;;;17.16;39.48;98817.78;5015878;28;20025;-77
2021/10/30 07:31:58;;;;;;;3.28;2.10;;;;;;;17.18;39.35;98809.09;5033620;28;20029;-79
2021/10/30 07:34:25;;;;;;;5.28;3.00;;;;;;;17.16;39.55;98814.25;5025673;28;20379;-79
2021/10/30 07:36:51;;;;;;;5.18;2.72;;;;;;;17.18;39.43;98818.16;5017092;28;20104;-78
2021/10/30 07:39:17;;;;;;;7.40;2.97;;;;;;;17.16;39.43;98820.56;5016728;28;20450;-78
2021/10/30 07:41:43;;;;;;;3.13;2.00;;;;;;;17.20;39.62;98820.53;5016094;28;20047;-79
2021/10/30 07:44:10;;;;;;;4.47;2.25;;;;;;;17.22;39.30;98822.88;5016063;28;20025;-78
2021/10/30 07:46:37;;;;;;;4.03;2.63;;;;;;;17.18;39.38;98825.66;5016203;28;20452;-76
2021/10/30 07:49:03;;;;;;;8.80;3.22;;;;;;;17.17;39.54;98826.84;5016964;28;20017;-76
2021/10/30 07:51:28;;;;;;;6.07;2.65;;;;;;;17.20;39.40;98826.81;5015158;28;20053;-76
2021/10/30 07:53:54;;;;;;;4.15;2.70;;;;;;;17.25;39.37;98828.38;5016117;28;20029;-76
2021/10/30 07:56:20;;;;;;;8.23;4.03;;;;;;;17.16;39.84;98830.81;5014939;28;20033;-80
2021/10/30 07:58:46;;;;;;;4.20;2.05;;;;;;;17.20;39.73;98823.28;5015500;28;21574;-79
2021/10/30 08:01:12;;;;;;;7.35;2.50;;;;;;;17.27;39.76;98827.97;5016529;28;20025;-75
2021/10/30 08:03:38;;;;;;;4.35;2.85;;;;;;;17.29;39.54;98831.88;5014862;28;20132;-75
2021/10/30 08:06:03;;;;;;;5.57;3.00;;;;;;;17.33;39.52;98838.19;5014410;28;20045;-78
2021/10/30 08:08:31;;;;;;;6.07;2.40;;;;;;;17.39;39.57;98842.09;5015428;28;20386;-76
2021/10/30 08:10:57;;;;;;;3.72;2.10;;;;;;;17.43;39.75;98845.59;5015428;28;20838;-77
2021/10/30 08:13:23;;;;;;;6.50;2.00;;;;;;;17.48;39.47;98852.69;5015689;28;20025;-77
2021/10/30 08:15:49;;;;;;;4.15;1.92;;;;;;;17.54;39.68;98848.31;5016140;28;20483;-77
2021/10/30 08:18:15;;;;;;;5.32;1.98;;;;;;;17.58;39.81;98848.28;5012591;28;20031;-78
2021/10/30 08:20:40;;;;;;;4.20;2.17;;;;;;;17.55;39.98;98854.63;5018092;28;20056;-77
2021/10/30 08:23:06;;;;;;;4.93;1.65;;;;;;;17.70;40.16;98850.56;5031667;28;20068;-77
2021/10/30 08:25:32;;;;;;;2.28;1.35;;;;;;;17.71;39.92;98858.47;5029377;28;20029;-77
2021/10/30 08:27:58;;;;;;;4.05;1.52;;;;;;;17.80;40.12;98862.72;5030341;28;20033;-77
2021/10/30 08:30:25;;;;;;;4.03;1.45;;;;;;;17.83;40.10;98870.19;5030403;28;20041;-78
2021/10/30 08:32:50;;;;;;;1.88;1.30;;;;;;;17.95;40.03;98866.94;5012923;28;20503;-78
2021/10/30 08:35:16;;;;;;;3.20;1.42;;;;;;;17.97;40.11;98875.59;5027028;28;20030;-78
2021/10/30 08:37:42;;;;;;;2.67;1.15;;;;;;;17.88;40.46;98878.84;5009895;28;20029;-79
2021/10/30 08:40:13;;;;;;;5.15;1.70;;;;;;;18.00;40.29;98866.53;5027125;28;20038;-79
2021/10/30 08:42:48;;;;;;;5.00;1.92;;;;;;;18.16;40.27;98869.53;5027231;28;20176;-78
2021/10/30 08:45:19;;;;;;;6.25;1.45;;;;;;;18.17;40.55;98870.31;5010015;28;20029;-79
2021/10/30 08:47:48;;;;;;;3.67;1.50;;;;;;;18.20;40.76;98872.25;5028132;28;20089;-78
2021/10/30 08:50:16;;;;;;;3.35;1.15;;;;;;;18.31;40.52;98878.47;5028684;28;20492;-80
2021/10/30 08:52:42;;;;;;;5.85;1.30;;;;;;;18.43;40.23;98879.91;5011665;28;20026;-78
2021/10/30 08:55:09;;;;;;;2.67;1.20;;;;;;;18.40;40.45;98886.28;5005010;28;20022;-80
2021/10/30 08:57:35;;;;;;;2.80;1.23;;;;;;;18.32;40.91;98884.78;5011213;28;20029;-80
2021/10/30 09:00:27;;;;;;;4.38;1.42;;;;;;;18.51;40.61;98892.47;5029444;28;20041;-80
2021/10/30 09:03:02;;;;;;;4.82;1.17;;;;;;;18.47;40.86;98892.53;5006595;28;20128;-82
2021/10/30 09:05:28;;;;;;;3.60;1.60;;;;;;;18.68;40.41;98891.56;5024610;28;20045;-82
2021/10/30 09:07:56;;;;;;;2.72;1.40;;;;;;;18.84;40.26;98905.59;5029878;28;20095;-81
2021/10/30 09:10:29;;;;;;;1.95;1.15;;;;;;;18.49;40.79;98906.72;5027996;28;20029;-80
2021/10/30 09:12:59;;;;;;;4.07;1.75;;;;;;;18.64;40.77;98907.34;5010570;28;20073;-78
2021/10/30 09:15:47;;;;;;;5.88;1.48;;;;;;;18.62;40.68;98903.44;5030148;28;20037;-82
2021/10/30 09:18:32;;;;;;;5.00;2.47;;;;;;;19.01;40.29;98903.81;5011058;28;20033;-80
2021/10/30 09:21:14;;;;;;;3.15;1.70;;;;;;;19.04;40.42;98902.19;5011061;28;20670;-82
2021/10/30 09:23:55;;;;;;;4.10;1.98;;;;;;;19.21;40.23;98912.28;5028152;28;20024;-80
2021/10/30 09:26:31;;;;;;;7.68;4.28;;;;;;;19.24;40.31;98916.97;5010304;28;20077;-83
2021/10/30 09:29:07;;;;;;;3.08;1.30;;;;;;;19.36;40.29;98910.88;5027983;28;20112;-83
2021/10/30 09:31:32;;;;;;;2.88;1.38;;;;;;;19.41;40.08;98910.41;5027216;28;20045;-81
2021/10/30 09:34:01;;;;;;;10.35;1.65;;;;;;;19.53;40.07;98909.06;5011656;28;20025;-81
2021/10/30 09:36:37;;;;;;;4.25;1.42;;;;;;;19.26;40.62;98916.53;5026803;28;20041;-81
2021/10/30 09:39:14;;;;;;;2.47;1.05;;;;;;;19.49;40.35;98915.84;5030121;28;20037;-83
2021/10/30 09:41:42;;;;;;;2.95;1.05;;;;;;;19.55;40.37;98919.72;5029308;28;20030;-82
2021/10/30 09:44:17;;;;;;;2.38;1.20;;;;;;;19.48;40.50;98919.81;5027791;28;20025;-81
2021/10/30 09:46:46;;;;;;;4.05;0.98;;;;;;;19.10;41.13;98919.91;5012041;28;20041;-82
2021/10/30 09:49:25;;;;;;;1.47;0.80;;;;;;;19.29;40.69;98930.34;5028022;28;20022;-79
2021/10/30 09:52:09;;;;;;;3.05;1.73;;;;;;;19.31;40.98;98930.72;5010083;28;20382;-81
2021/10/30 09:54:37;;;;;;;1.60;1.10;;;;;;;19.51;40.76;98924.53;5027260;28;20022;-84
2021/10/30 09:57:06;;;;;;;6.05;1.10;;;;;;;19.23;41.32;98926.47;5013336;28;20060;-82
2021/10/30 09:59:41;;;;;;;2.58;1.40;;;;;;;19.28;41.26;98934.34;5026113;28;20472;-85
2021/10/30 10:02:10;;;;;;;2.20;1.10;;;;;;;19.83;40.41;98937.94;5030836;28;20037;-83
2021/10/30 10:04:40;;;;;;;2.25;1.15;;;;;;;19.19;41.61;98936.00;5031867;28;20049;-86
2021/10/30 10:07:07;;;;;;;3.05;1.25;;;;;;;19.94;40.23;98938.56;5030405;28;20065;-84
2021/10/30 10:09:33;;;;;;;2.30;1.10;;;;;;;20.02;40.17;98942.78;5032231;28;20033;-81
2021/10/30 10:11:59;;;;;;;3.10;1.77;;;;;;;20.10;40.05;98927.63;5029608;28;20064;-79
2021/10/30 10:14:25;;;;;;;8.93;6.28;;;;;;;19.90;40.67;98930.31;5032434;28;20053;-78
2021/10/30 10:16:55;;;;;;;2.72;0.90;;;;;;;19.60;41.16;98928.38;5032947;28;20057;-78
2021/10/30 10:19:22;;;;;;;2.13;1.05;;;;;;;19.49;41.59;98941.56;5031466;28;20021;-80
2021/10/30 10:21:50;;;;;;;2.70;1.40;;;;;;;20.10;40.14;98938.72;5032981;28;20037;-80
2021/10/30 10:24:18;;;;;;;6.03;1.30;;;;;;;20.14;40.17;98935.88;5024567;28;20020;-80
2021/10/30 10:26:49;;;;;;;1.75;0.93;;;;;;;20.20;40.15;98939.75;5031682;28;20014;-78
2021/10/30 10:29:42;;;;;;;4.97;1.15;;;;;;;20.33;40.03;98945.47;5033855;28;20037;-78
2021/10/30 10:32:27;;;;;;;3.78;1.27;;;;;;;20.41;39.79;98942.16;5033879;28;20498;-77
2021/10/30 10:35:05;;;;;;;2.50;0.98;;;;;;;20.54;39.54;98945.13;5033262;28;20124;-79
2021/10/30 10:37:31;;;;;;;2.42;1.08;;;;;;;20.86;39.18;98952.09;5033301;28;20036;-79
2021/10/30 10:39:59;;;;;;;5.00;1.45;;;;;;;20.74;39.42;98954.28;5032588;28;20442;-81
2021/10/30 10:42:33;;;;;;;4.25;1.40;;;;;;;20.93;39.12;98949.16;5029778;28;20105;-80
2021/10/30 10:45:20;;;;;;;4.60;1.42;;;;;;;20.91;39.20;98941.28;5014761;28;20083;-78
2021/10/30 10:47:49;;;;;;;2.90;1.00;;;;;;;20.96;38.93;98949.09;5027021;28;20519;-78
2021/10/30 10:50:30;;;;;;;1.48;0.90;;;;;;;20.99;38.75;98942.69;5032969;28;20071;-79
2021/10/30 10:53:08;;;;;;;7.43;1.35;;;;;;;20.87;38.74;98960.00;5033495;28;20167;-78
2021/10/30 10:55:53;;;;;;;2.03;1.05;;;;;;;20.96;38.65;98951.09;5015889;28;20079;-78
2021/10/30 10:58:19;;;;;;;1.27;0.75;;;;;;;21.20;38.50;98951.81;5014851;28;20049;-79
2021/10/30 11:01:14;;;;;;;4.38;1.58;;;;;;;21.21;38.35;98953.38;5032007;28;20480;-78
2021/10/30 11:03:46;;;;;;;4.18;1.63;;;;;;;21.40;38.18;98949.06;5011728;28;20054;-78
2021/10/30 11:06:13;;;;;;;4.40;1.73;;;;;;;21.50;38.26;98951.59;5032406;28;20021;-78
2021/10/30 11:08:38;;;;;;;3.22;1.20;;;;;;;21.43;38.42;98954.53;5032657;28;20032;-78
2021/10/30 11:11:25;;;;;;;3.72;1.30;;;;;;;21.52;38.11;98957.50;5033035;28;20480;-78
2021/10/30 11:14:04;;;;;;;3.85;1.10;;;;;;;21.65;38.09;98971.53;5014916;28;20108;-79
2021/10/30 11:16:39;;;;;;;2.55;0.95;;;;;;;21.76;37.76;98971.28;5032931;28;20080;-79
2021/10/30 11:19:16;;;;;;;0.93;0.70;;;;;;;21.50;38.20;98964.72;5032012;28;20029;-78
2021/10/30 11:21:48;;;;;;;4.05;1.40;;;;;;;21.51;38.01;98958.72;5014922;28;20418;-78
2021/10/30 11:24:20;;;;;;;4.18;1.80;;;;;;;21.62;38.12;98963.28;5033603;28;20087;-78
2021/10/30 11:27:05;;;;;;;5.55;1.27;;;;;;;21.67;38.05;98963.53;5033650;28;20116;-78
2021/10/30 11:29:32;;;;;;;5.55;1.70;;;;;;;21.77;37.79;98967.31;5033482;28;20365;-78
2021/10/30 11:32:04;;;;;;;1.15;0.80;;;;;;;21.82;38.07;98964.00;5031311;28;20025;-78
2021/10/30 11:34:30;;;;;;;11.23;1.35;;;;;;;21.93;37.94;98972.13;5025771;28;20025;-78
2021/10/30 11:36:57;;;;;;;2.47;0.90;;;;;;;21.94;37.86;98976.47;5031834;28;20464;-80